Time;durP1;ratioP1;P1;durP2;ratioP2;P2;SDS_P1;SDS_P2;PMS_P1;PMS_P2;Temp;Humidity;BMP_temperature;BMP_pressure;BME280_temperature;BME280_humidity;BME280_pressure;Samples;Min_cycle;Max_cycle;Signal;HPM_P1;HPM_P2
2022/08/22 00:01:47;;;;;;;5.93;3.30;;;27.00;69.40;;;;;;5056204;28;20052;-81
2022/08/22 00:04:19;;;;;;;4.55;3.40;;;27.00;69.20;;;;;;5054592;28;20040;-81
2022/08/22 00:07:11;;;;;;;4.18;3.22;;;27.00;68.80;;;;;;5054875;28;20082;-82
2022/08/22 00:09:49;;;;;;;5.35;3.47;;;27.00;69.20;;;;;;5040024;28;20029;-82
2022/08/22 00:12:28;;;;;;;4.38;3.08;;;26.90;68.60;;;;;;5053908;28;20031;-83
2022/08/22 00:15:16;;;;;;;4.30;3.50;;;26.50;69.90;;;;;;5054621;28;20039;-81
2022/08/22 00:18:06;;;;;;;3.70;3.00;;;26.30;70.80;;;;;;5053995;28;20076;-83
2022/08/22 00:20:55;;;;;;;5.65;3.10;;;26.60;70.20;;;;;;5062635;28;20177;-81
2022/08/22 00:23:42;;;;;;;7.15;3.40;;;26.80;70.10;;;;;;5057361;28;20032;-83
2022/08/22 00:26:26;;;;;;;7.60;3.53;;;27.00;69.20;;;;;;5070464;28;20035;-82
2022/08/22 00:29:00;;;;;;;5.28;3.50;;;27.20;68.70;;;;;;5074777;28;20021;-82
2022/08/22 00:31:39;;;;;;;5.15;4.05;;;27.40;68.10;;;;;;5075954;28;20024;-82
2022/08/22 00:34:33;;;;;;;4.72;3.42;;;27.20;68.50;;;;;;5074601;28;20047;-84
2022/08/22 00:37:24;;;;;;;4.32;3.50;;;27.30;68.50;;;;;;5075901;28;20021;-82
2022/08/22 00:39:55;;;;;;;4.55;3.45;;;27.30;68.80;;;;;;5075784;28;20105;-81
2022/08/22 00:42:32;;;;;;;5.40;3.60;;;27.30;68.60;;;;;;5056589;28;20036;-81
2022/08/22 00:45:22;;;;;;;4.47;3.50;;;27.40;68.00;;;;;;5073848;28;20628;-83
2022/08/22 00:48:03;;;;;;;5.28;3.50;;;27.30;68.20;;;;;;5064765;28;20103;-81
2022/08/22 00:50:33;;;;;;;4.75;3.88;;;27.00;68.70;;;;;;5073512;28;20475;-84
2022/08/22 00:53:50;;;;;;;4.63;3.90;;;26.90;68.50;;;;;;5055598;28;20082;-80
2022/08/22 00:56:54;;;;;;;5.93;3.47;;;26.90;68.80;;;;;;4973461;28;20046;-83
2022/08/22 01:00:08;;;;;;;6.45;3.80;;;27.00;68.30;;;;;;4973257;28;20081;-82
2022/08/22 01:03:01;;;;;;;8.13;5.03;;;26.90;68.60;;;;;;4967103;28;20043;-83
2022/08/22 01:05:48;;;;;;;6.97;3.58;;;27.00;68.50;;;;;;4974405;28;20429;-84
2022/08/22 01:08:35;;;;;;;6.22;4.45;;;27.00;68.90;;;;;;4974408;28;20612;-82
2022/08/22 01:11:40;;;;;;;7.28;4.30;;;26.90;68.60;;;;;;4972205;28;20026;-80
2022/08/22 01:14:37;;;;;;;8.25;4.10;;;26.90;68.50;;;;;;4933652;29;20089;-82
2022/08/22 01:17:17;;;;;;;5.28;4.28;;;26.80;69.30;;;;;;4934655;29;20152;-80
2022/08/22 01:20:20;;;;;;;4.82;3.78;;;26.70;69.40;;;;;;4934733;29;20052;-81
2022/08/22 01:22:51;;;;;;;5.53;4.47;;;26.70;69.00;;;;;;4933776;29;20075;-83
2022/08/22 01:26:00;;;;;;;6.53;3.97;;;26.70;69.20;;;;;;4934604;29;20079;-83
2022/08/22 01:29:04;;;;;;;7.07;4.95;;;27.00;68.60;;;;;;4918593;29;20028;-81
2022/08/22 01:31:54;;;;;;;7.70;5.20;;;26.80;68.80;;;;;;4877457;29;20492;-81
2022/08/22 01:34:49;;;;;;;5.60;4.25;;;26.70;69.20;;;;;;4903836;29;20032;-83
2022/08/22 01:37:48;;;;;;;6.78;5.53;;;26.80;69.10;;;;;;4912604;29;20071;-79
2022/08/22 01:40:35;;;;;;;6.22;4.80;;;26.70;69.10;;;;;;4915360;29;20530;-82
2022/08/22 01:43:15;;;;;;;7.70;5.00;;;26.70;69.10;;;;;;4897311;29;20051;-84
2022/08/22 01:45:53;;;;;;;;;;;26.80;68.90;;;;;;4899824;29;20028;-83
2022/08/22 01:48:34;;;;;;;7.07;4.97;;;26.90;68.80;;;;;;4915541;29;19918;-81
2022/08/22 01:51:36;;;;;;;5.70;4.55;;;27.00;68.70;;;;;;4935791;29;20569;-81
2022/08/22 01:54:11;;;;;;;5.78;4.32;;;27.00;68.40;;;;;;4969185;28;20146;-82
2022/08/22 01:56:43;;;;;;;8.07;4.65;;;27.00;68.40;;;;;;4989153;28;20239;-83
2022/08/22 01:59:30;;;;;;;7.80;4.68;;;27.10;68.40;;;;;;4953361;29;20042;-82
2022/08/22 02:02:17;;;;;;;8.05;5.30;;;27.20;68.20;;;;;;4968137;28;20042;-83
2022/08/22 02:05:05;;;;;;;8.15;4.78;;;27.30;68.30;;;;;;4989025;28;20034;-83
2022/08/22 02:08:01;;;;;;;7.95;5.05;;;27.10;68.30;;;;;;4988518;28;20060;-81
2022/08/22 02:11:10;;;;;;;10.70;4.82;;;27.00;68.70;;;;;;5072856;28;20032;-83
2022/08/22 02:13:42;;;;;;;8.77;4.97;;;27.00;68.60;;;;;;4973117;28;20031;-84
2022/08/22 02:16:19;;;;;;;9.60;5.55;;;26.90;68.70;;;;;;4955352;28;20033;-81
2022/08/22 02:19:08;;;;;;;6.75;4.93;;;27.00;68.60;;;;;;4956914;28;20035;-85
2022/08/22 02:21:52;;;;;;;6.50;5.05;;;26.80;69.00;;;;;;4956917;28;20061;-80
2022/08/22 02:24:21;;;;;;;6.78;5.60;;;26.40;69.70;;;;;;4956253;28;20093;-84
2022/08/22 02:27:07;;;;;;;7.20;5.00;;;26.30;70.00;;;;;;4972274;28;20030;-84
2022/08/22 02:29:40;;;;;;;7.25;5.60;;;26.30;70.20;;;;;;4971496;28;20026;-80
2022/08/22 02:32:14;;;;;;;6.95;6.00;;;26.50;69.90;;;;;;4956047;28;20143;-87
2022/08/22 02:34:47;;;;;;;6.60;5.25;;;26.70;69.70;;;;;;4972960;28;20457;-83
2022/08/22 02:37:20;;;;;;;6.25;4.63;;;26.90;69.00;;;;;;4955504;28;20375;-83
2022/08/22 02:40:23;;;;;;;6.00;4.95;;;27.00;68.80;;;;;;4954811;28;20061;-81
2022/08/22 02:42:57;;;;;;;7.18;5.00;;;27.00;68.60;;;;;;4970573;28;20101;-84
2022/08/22 02:45:43;;;;;;;7.95;4.97;;;27.10;68.70;;;;;;5051350;28;20479;-85
2022/08/22 02:48:18;;;;;;;6.03;4.97;;;27.20;68.10;;;;;;5038962;28;20025;-82
2022/08/22 02:50:51;;;;;;;8.10;5.28;;;27.30;67.70;;;;;;5051204;28;20043;-83
2022/08/22 02:53:43;;;;;;;7.00;5.45;;;27.30;67.70;;;;;;5071883;28;20505;-82
2022/08/22 02:56:34;;;;;;;7.47;4.97;;;27.20;67.80;;;;;;5036216;28;20104;-84
2022/08/22 02:59:26;;;;;;;7.32;4.40;;;27.20;68.00;;;;;;5060136;28;20021;-84
2022/08/22 03:01:53;;;;;;;6.93;4.78;;;26.80;69.10;;;;;;5055089;28;20039;-84
2022/08/22 03:04:22;;;;;;;6.60;4.97;;;26.80;68.80;;;;;;5055497;28;20086;-83
2022/08/22 03:07:06;;;;;;;7.20;4.30;;;26.90;68.90;;;;;;5073656;28;20432;-83
2022/08/22 03:09:55;;;;;;;8.38;4.95;;;27.10;68.50;;;;;;5053909;28;20029;-83
2022/08/22 03:12:47;;;;;;;7.18;5.68;;;27.30;68.00;;;;;;5012426;28;20045;-84
2022/08/22 03:15:24;;;;;;;7.45;5.05;;;27.40;67.70;;;;;;4952564;28;20046;-84
2022/08/22 03:17:57;;;;;;;8.57;5.18;;;27.30;67.70;;;;;;4932759;29;20081;-83
2022/08/22 03:20:35;;;;;;;6.85;5.28;;;27.40;67.60;;;;;;4952399;28;20046;-84
2022/08/22 03:23:15;;;;;;;8.02;4.72;;;27.40;67.60;;;;;;4937286;29;20073;-84
2022/08/22 03:25:54;;;;;;;10.98;4.85;;;27.50;67.50;;;;;;4952873;29;20070;-84
2022/08/22 03:28:26;;;;;;;6.85;5.20;;;27.60;67.60;;;;;;4951786;29;20031;-84
2022/08/22 03:31:08;;;;;;;7.10;4.50;;;27.50;67.50;;;;;;4952078;29;20051;-84
2022/08/22 03:33:34;;;;;;;6.82;4.80;;;27.50;67.80;;;;;;4953069;29;20364;-84
2022/08/22 03:36:09;;;;;;;5.45;4.30;;;27.60;67.60;;;;;;4952077;29;20500;-80
2022/08/22 03:38:35;;;;;;;8.18;4.88;;;27.60;67.20;;;;;;4951814;28;20082;-80
2022/08/22 03:41:37;;;;;;;7.07;4.53;;;27.60;67.20;;;;;;4951582;29;20154;-81
2022/08/22 03:44:17;;;;;;;4.35;3.72;;;27.40;67.70;;;;;;4935259;29;20549;-83
2022/08/22 03:46:46;;;;;;;;;;;27.40;68.10;;;;;;4933669;29;20039;-79
2022/08/22 03:49:14;;;;;;;9.52;4.90;;;27.40;68.20;;;;;;4966918;28;19916;-81
2022/08/22 03:51:46;;;;;;;7.82;4.60;;;27.40;67.90;;;;;;5019391;28;20045;-77
2022/08/22 03:54:47;;;;;;;5.68;4.80;;;27.20;68.30;;;;;;5071746;28;20158;-79
2022/08/22 03:57:57;;;;;;;11.15;5.30;;;27.10;68.40;;;;;;5034945;28;20043;-81
2022/08/22 04:00:41;;;;;;;8.52;5.40;;;27.00;68.30;;;;;;5035600;28;20037;-82
2022/08/22 04:03:25;;;;;;;9.07;5.80;;;27.00;68.60;;;;;;5053198;28;20028;-80
2022/08/22 04:06:03;;;;;;;6.80;5.40;;;27.20;68.50;;;;;;5063291;28;20031;-83
2022/08/22 04:08:31;;;;;;;7.05;5.40;;;27.30;68.00;;;;;;5054152;28;20119;-82
2022/08/22 04:11:15;;;;;;;8.25;5.00;;;27.10;68.40;;;;;;5054155;28;20025;-82
2022/08/22 04:14:13;;;;;;;8.55;4.90;;;27.10;68.30;;;;;;5070642;28;20068;-83
2022/08/22 04:17:03;;;;;;;8.15;5.00;;;27.10;68.80;;;;;;4968923;28;20027;-84
2022/08/22 04:19:58;;;;;;;7.05;4.75;;;27.30;68.30;;;;;;4956117;28;20057;-83
2022/08/22 04:22:45;;;;;;;5.53;4.30;;;27.50;68.10;;;;;;4970700;28;20355;-81
2022/08/22 04:25:54;;;;;;;7.45;5.10;;;27.50;68.00;;;;;;4945562;28;20035;-82
2022/08/22 04:28:30;;;;;;;6.32;4.60;;;27.60;67.90;;;;;;4893022;29;20412;-82
2022/08/22 04:31:21;;;;;;;8.80;4.70;;;27.50;67.90;;;;;;4894838;29;20033;-81
2022/08/22 04:33:58;;;;;;;6.30;5.53;;;27.60;67.80;;;;;;4896322;29;20058;-85
2022/08/22 04:36:26;;;;;;;7.22;5.20;;;27.40;68.40;;;;;;4883326;29;20411;-81
2022/08/22 04:39:17;;;;;;;7.60;5.40;;;27.50;68.10;;;;;;4899243;29;20041;-81
2022/08/22 04:41:54;;;;;;;8.85;5.63;;;27.50;68.00;;;;;;4889107;29;20079;-81
2022/08/22 04:44:46;;;;;;;8.10;5.93;;;27.60;68.20;;;;;;4885519;29;20068;-82
2022/08/22 04:47:36;;;;;;;10.23;6.03;;;27.60;67.70;;;;;;4898452;29;20249;-82
2022/08/22 04:50:43;;;;;;;8.05;6.65;;;27.60;67.80;;;;;;4894104;29;20040;-80
2022/08/22 04:53:39;;;;;;;8.90;5.57;;;27.70;67.80;;;;;;4947852;28;20424;-79
2022/08/22 04:56:31;;;;;;;8.70;6.15;;;27.80;67.90;;;;;;4982136;28;20066;-80
2022/08/22 04:59:02;;;;;;;17.30;12.10;;;27.80;67.80;;;;;;5018342;28;20119;-81
2022/08/22 05:02:08;;;;;;;24.13;14.65;;;27.80;67.80;;;;;;5057654;28;20036;-80
2022/08/22 05:05:11;;;;;;;9.23;6.90;;;28.00;67.50;;;;;;4989287;28;20125;-82
2022/08/22 05:07:48;;;;;;;11.05;8.23;;;28.00;67.10;;;;;;4947120;28;20474;-80
2022/08/22 05:10:37;;;;;;;9.68;7.22;;;28.00;67.40;;;;;;4954843;28;20101;-81
2022/08/22 05:13:14;;;;;;;7.85;5.45;;;28.20;67.30;;;;;;4954488;28;20042;-81
2022/08/22 05:15:44;;;;;;;8.73;6.47;;;28.20;67.50;;;;;;4964101;28;20047;-80
2022/08/22 05:18:19;;;;;;;26.88;23.80;;;28.30;67.40;;;;;;4935951;29;20028;-82
2022/08/22 05:20:48;;;;;;;10.57;9.45;;;28.30;67.10;;;;;;4938085;29;20075;-78
2022/08/22 05:23:37;;;;;;;9.35;6.65;;;28.40;66.80;;;;;;4953580;28;20035;-75
2022/08/22 05:26:05;;;;;;;6.57;5.05;;;28.30;66.80;;;;;;4938178;29;20031;-80
2022/08/22 05:28:33;;;;;;;5.30;4.10;;;28.40;67.00;;;;;;4954199;29;20035;-79
2022/08/22 05:31:02;;;;;;;7.40;4.47;;;28.40;66.80;;;;;;4953770;29;20035;-79
2022/08/22 05:33:36;;;;;;;6.97;4.55;;;28.40;67.00;;;;;;4938120;28;20180;-77
2022/08/22 05:36:35;;;;;;;6.85;4.63;;;28.40;67.20;;;;;;5000819;28;20071;-80
2022/08/22 05:39:15;;;;;;;6.80;4.63;;;28.50;67.30;;;;;;4990761;28;20029;-77
2022/08/22 05:41:42;;;;;;;;;;;28.60;67.00;;;;;;5028665;28;20506;-79
2022/08/22 05:44:21;;;;;;;10.32;4.93;;;28.60;67.00;;;;;;5055590;28;19908;-81
2022/08/22 05:46:49;;;;;;;7.88;6.05;;;28.60;66.80;;;;;;5055998;28;20107;-80
2022/08/22 05:49:34;;;;;;;6.57;4.93;;;28.70;66.60;;;;;;5056695;28;20060;-80
2022/08/22 05:52:28;;;;;;;6.90;4.80;;;28.70;66.30;;;;;;5055851;28;20027;-81
2022/08/22 05:55:02;;;;;;;6.55;5.40;;;28.70;66.20;;;;;;5074318;28;20109;-79
2022/08/22 05:57:35;;;;;;;9.60;8.55;;;28.70;66.40;;;;;;5070890;28;20052;-80
2022/08/22 06:00:08;;;;;;;6.50;4.70;;;28.70;66.60;;;;;;5071805;28;20024;-79
2022/08/22 06:02:55;;;;;;;6.07;4.25;;;28.60;66.80;;;;;;5050984;28;20021;-80
2022/08/22 06:05:28;;;;;;;7.35;4.40;;;28.60;66.70;;;;;;5072567;28;20020;-79
2022/08/22 06:08:28;;;;;;;5.60;4.68;;;28.70;66.80;;;;;;5055133;28;20056;-80
2022/08/22 06:10:59;;;;;;;7.47;4.75;;;28.70;66.50;;;;;;5044453;28;20383;-79
2022/08/22 06:13:33;;;;;;;;;;;28.80;66.10;;;;;;5055796;28;20027;-80
2022/08/22 06:16:09;;;;;;;7.15;4.85;;;28.80;66.40;;;;;;5072985;28;19904;-78
2022/08/22 06:18:37;;;;;;;13.27;11.80;;;28.90;66.20;;;;;;5055047;28;20031;-79
2022/08/22 06:21:08;;;;;;;12.57;9.10;;;28.90;66.30;;;;;;5068868;28;20044;-80
2022/08/22 06:23:34;;;;;;;8.68;6.00;;;28.90;66.40;;;;;;5073596;28;20044;-79
2022/08/22 06:26:00;;;;;;;7.63;5.38;;;29.00;66.30;;;;;;5054963;28;20483;-79
2022/08/22 06:28:35;;;;;;;6.78;5.43;;;29.00;66.30;;;;;;5054881;28;20498;-80
2022/08/22 06:31:03;;;;;;;8.30;5.22;;;29.00;66.60;;;;;;5054416;28;20036;-79
2022/08/22 06:33:33;;;;;;;6.30;5.32;;;28.90;66.20;;;;;;5072753;28;20024;-79
2022/08/22 06:39:15;;;;;;;8.02;5.43;;;28.90;66.40;;;;;;5073129;28;20093;-80
2022/08/22 06:42:00;;;;;;;8.93;5.22;;;28.80;66.50;;;;;;5073360;28;20028;-80
2022/08/22 06:44:31;;;;;;;7.70;5.80;;;28.70;66.70;;;;;;5055446;28;20070;-79
2022/08/22 06:47:02;;;;;;;7.68;5.28;;;28.70;67.00;;;;;;5055240;28;20025;-79
2022/08/22 06:49:29;;;;;;;9.95;5.40;;;28.80;66.60;;;;;;5054924;28;20031;-82
2022/08/22 06:52:10;;;;;;;11.00;7.07;;;28.80;66.70;;;;;;5056610;28;20479;-84
2022/08/22 06:54:42;;;;;;;9.85;6.20;;;28.90;66.60;;;;;;5055271;28;20055;-84
2022/08/22 06:57:27;;;;;;;7.88;5.57;;;29.00;66.60;;;;;;4708995;28;10000078;-81
2022/08/22 06:59:54;;;;;;;7.00;5.55;;;29.00;67.20;;;;;;5053829;28;20036;-79
2022/08/22 07:02:33;;;;;;;8.02;6.03;;;29.00;67.10;;;;;;5072348;28;20029;-79
2022/08/22 07:04:59;;;;;;;5.93;4.65;;;29.10;67.10;;;;;;5053809;28;20024;-84
2022/08/22 07:07:26;;;;;;;7.80;5.53;;;29.20;66.80;;;;;;5041807;28;20539;-83
2022/08/22 07:09:55;;;;;;;8.05;5.47;;;29.20;66.80;;;;;;5071655;28;20020;-82
2022/08/22 07:12:26;;;;;;;9.70;5.53;;;29.30;67.80;;;;;;5063732;28;20044;-79
2022/08/22 07:14:57;;;;;;;5.95;4.80;;;29.50;68.20;;;;;;5052891;28;20031;-81
2022/08/22 07:17:29;;;;;;;7.25;4.97;;;29.60;67.40;;;;;;5070380;28;20025;-80
2022/08/22 07:20:30;;;;;;;7.55;5.82;;;29.80;67.10;;;;;;5050868;28;20044;-84
2022/08/22 07:23:09;;;;;;;9.15;5.70;;;29.80;66.90;;;;;;5031517;28;20533;-82
2022/08/22 07:25:54;;;;;;;7.15;5.82;;;29.70;66.60;;;;;;5052264;28;20032;-83
2022/08/22 07:28:57;;;;;;;7.13;5.70;;;29.60;66.90;;;;;;5053022;28;20651;-81
2022/08/22 07:31:30;;;;;;;7.28;5.75;;;29.70;66.50;;;;;;5051881;28;20091;-86
2022/08/22 07:34:12;;;;;;;6.35;4.90;;;29.70;67.10;;;;;;5070976;28;20098;-85
2022/08/22 07:37:05;;;;;;;7.03;5.20;;;29.50;67.40;;;;;;5052229;28;20537;-82
2022/08/22 07:39:47;;;;;;;8.25;4.60;;;29.30;68.50;;;;;;5054839;28;20399;-83
2022/08/22 07:42:17;;;;;;;7.07;5.72;;;29.40;68.20;;;;;;5051944;28;20143;-83
2022/08/22 07:44:49;;;;;;;8.65;5.53;;;29.50;68.10;;;;;;5054979;28;20013;-85
2022/08/22 07:47:19;;;;;;;7.18;5.22;;;29.90;68.10;;;;;;5063598;28;20471;-79
2022/08/22 07:49:59;;;;;;;7.20;4.60;;;30.10;67.70;;;;;;5069919;28;20452;-84
2022/08/22 07:52:29;;;;;;;7.43;5.65;;;30.00;66.80;;;;;;5055809;28;20060;-80
2022/08/22 07:55:17;;;;;;;10.60;6.47;;;29.60;68.30;;;;;;5068079;28;20104;-80
2022/08/22 07:57:51;;;;;;;6.95;5.07;;;29.60;68.00;;;;;;5064218;28;20027;-78
2022/08/22 08:00:19;;;;;;;11.02;6.13;;;29.90;67.60;;;;;;5072489;28;20036;-80
2022/08/22 08:03:03;;;;;;;14.63;6.40;;;30.20;67.00;;;;;;5057172;28;20078;-80
2022/08/22 08:05:35;;;;;;;9.77;6.60;;;30.50;66.50;;;;;;5059395;28;20031;-79
2022/08/22 08:08:07;;;;;;;9.02;6.40;;;30.70;66.20;;;;;;5058390;28;20036;-80
2022/08/22 08:10:46;;;;;;;7.22;5.40;;;30.70;66.10;;;;;;5055098;28;20021;-82
2022/08/22 08:13:24;;;;;;;7.55;5.85;;;30.70;66.20;;;;;;5055525;28;20112;-81
2022/08/22 08:15:50;;;;;;;10.10;6.15;;;30.50;66.80;;;;;;5076801;28;20025;-80
2022/08/22 08:18:20;;;;;;;7.70;5.40;;;30.40;67.20;;;;;;5057803;28;20070;-80
2022/08/22 08:20:53;;;;;;;7.97;5.53;;;30.50;67.10;;;;;;5056782;28;20036;-81
2022/08/22 08:23:28;;;;;;;7.55;5.50;;;30.20;67.00;;;;;;5055646;28;20056;-82
2022/08/22 08:26:03;;;;;;;9.05;7.00;;;29.90;67.70;;;;;;5051446;28;20056;-78
2022/08/22 08:28:36;;;;;;;8.93;6.57;;;30.10;67.40;;;;;;5071729;28;20556;-79
2022/08/22 08:31:28;;;;;;;8.68;7.22;;;30.10;67.60;;;;;;5057949;28;20109;-79
2022/08/22 08:34:31;;;;;;;8.98;7.05;;;30.20;67.20;;;;;;5058839;28;20024;-81
2022/08/22 08:37:11;;;;;;;9.45;6.93;;;30.30;66.80;;;;;;4978996;28;20112;-82
2022/08/22 08:39:47;;;;;;;12.27;7.40;;;30.30;66.80;;;;;;4978316;28;20506;-81
2022/08/22 08:46:10;;;;;;;11.85;7.00;;;30.40;67.10;;;;;;4955847;29;20039;-81
2022/08/22 08:49:03;;;;;;;7.85;6.32;;;30.40;66.60;;;;;;4956261;29;20032;-81
2022/08/22 08:51:55;;;;;;;10.15;7.07;;;30.50;66.50;;;;;;4956246;29;20363;-81
2022/08/22 08:54:59;;;;;;;10.57;6.95;;;30.50;66.80;;;;;;4956688;29;20058;-81
2022/08/22 08:57:47;;;;;;;10.63;7.57;;;30.50;67.00;;;;;;4940000;29;20059;-81
2022/08/22 09:00:21;;;;;;;9.73;7.40;;;30.50;66.80;;;;;;4939963;29;20422;-81
2022/08/22 09:03:04;;;;;;;13.32;7.25;;;30.50;67.00;;;;;;4939239;29;20610;-81
2022/08/22 09:05:57;;;;;;;9.60;7.35;;;30.70;66.60;;;;;;4939500;29;20070;-81
2022/08/22 09:08:44;;;;;;;12.60;7.93;;;30.80;65.70;;;;;;4940009;29;20390;-81
2022/08/22 09:11:37;;;;;;;11.07;6.65;;;31.00;65.80;;;;;;4974853;28;20092;-81
2022/08/22 09:14:39;;;;;;;9.70;6.75;;;31.10;65.90;;;;;;4997109;28;20072;-81
2022/08/22 09:17:41;;;;;;;11.73;7.72;;;31.10;65.00;;;;;;4997651;28;20041;-81
2022/08/22 09:20:46;;;;;;;9.52;6.07;;;31.00;65.90;;;;;;4967748;28;20528;-84
2022/08/22 09:23:33;;;;;;;11.63;6.72;;;31.40;65.90;;;;;;4960213;28;20066;-91
2022/08/22 09:26:20;;;;;;;12.07;6.90;;;31.20;64.80;;;;;;4975865;28;20038;-83
2022/08/22 09:29:06;;;;;;;11.20;7.80;;;30.80;66.00;;;;;;4957157;28;20421;-84
2022/08/22 09:31:44;;;;;;;15.73;7.72;;;31.00;65.80;;;;;;4975084;28;20045;-83
2022/08/22 09:34:18;;;;;;;11.13;6.32;;;31.40;65.10;;;;;;4975518;28;20038;-84
2022/08/22 09:37:11;;;;;;;13.63;8.43;;;31.70;64.80;;;;;;4975069;28;20130;-85
2022/08/22 09:40:07;;;;;;;11.70;8.18;;;31.70;64.80;;;;;;4975240;28;20039;-85
2022/08/22 09:42:43;;;;;;;8.80;6.80;;;31.80;64.40;;;;;;4956103;28;20026;-85
2022/08/22 09:45:17;;;;;;;12.85;6.57;;;31.70;64.50;;;;;;4581370;29;10001371;-92
2022/08/22 10:15:07;;;;;;;11.35;7.68;;;31.80;64.10;;;;;;4996583;28;20114;-86
2022/08/22 10:17:50;;;;;;;10.98;7.93;;;31.30;63.70;;;;;;4979075;28;20481;-90
2022/08/22 10:20:35;;;;;;;13.23;8.18;;;31.30;64.80;;;;;;4978525;28;20066;-87
2022/08/22 10:23:48;;;;;;;10.80;7.90;;;31.60;64.70;;;;;;4978532;28;20041;-91
2022/08/22 10:26:58;;;;;;;12.65;8.00;;;31.90;65.00;;;;;;5077251;23;20043;-89
2022/08/22 10:35:44;;;;;;;10.43;8.27;;;32.20;63.70;;;;;;5117847;23;20042;-89
2022/08/22 10:38:26;;;;;;;10.90;7.93;;;32.40;63.80;;;;;;4959282;28;20054;-89
2022/08/22 10:41:30;;;;;;;10.75;7.57;;;32.30;64.20;;;;;;4959032;28;20035;-91
2022/08/22 10:44:02;;;;;;;11.23;7.88;;;32.80;63.90;;;;;;4956012;28;20034;-90
2022/08/22 10:46:44;;;;;;;13.25;8.90;;;32.80;62.90;;;;;;4975853;28;20065;-88
2022/08/22 10:49:34;;;;;;;16.23;8.55;;;32.90;62.60;;;;;;4976216;28;20018;-84
2022/08/22 10:52:22;;;;;;;12.85;7.95;;;33.10;62.40;;;;;;4959360;28;20023;-86
2022/08/22 10:55:26;;;;;;;12.55;7.88;;;33.20;62.70;;;;;;4960242;28;20038;-87
2022/08/22 10:58:32;;;;;;;11.13;7.05;;;33.00;61.00;;;;;;4879361;29;20048;-87
2022/08/22 11:01:01;;;;;;;10.88;7.80;;;32.70;62.60;;;;;;4860479;29;20133;-84
2022/08/22 11:03:27;;;;;;;11.95;7.32;;;32.40;63.30;;;;;;4860308;29;20072;-89
2022/08/22 11:06:18;;;;;;;11.95;8.50;;;32.20;63.80;;;;;;4860278;29;20093;-85
2022/08/22 11:09:25;;;;;;;10.68;7.97;;;32.30;63.80;;;;;;4807917;29;20039;-90
2022/08/22 11:12:03;;;;;;;15.15;8.70;;;32.40;64.10;;;;;;4816351;29;20084;-88
2022/08/22 11:14:29;;;;;;;11.07;8.50;;;32.50;63.80;;;;;;4823974;29;20042;-88
2022/08/22 11:16:57;;;;;;;10.57;7.60;;;32.70;63.90;;;;;;4824052;29;20053;-83
2022/08/22 11:19:41;;;;;;;11.05;7.45;;;32.80;63.10;;;;;;4824854;29;20534;-95
2022/08/22 11:22:19;;;;;;;11.80;8.10;;;32.60;62.80;;;;;;4823835;29;20070;-82
2022/08/22 11:25:06;;;;;;;12.68;8.10;;;32.30;63.50;;;;;;4823536;29;20038;-88
2022/08/22 11:27:50;;;;;;;13.88;9.18;;;32.40;63.60;;;;;;4807515;29;20038;-86
2022/08/22 11:30:36;;;;;;;14.93;8.35;;;32.60;62.10;;;;;;4823236;29;20128;-84
2022/08/22 11:33:27;;;;;;;11.20;8.30;;;32.40;62.50;;;;;;4835411;29;20064;-82
2022/08/22 11:36:16;;;;;;;10.73;8.45;;;32.60;62.70;;;;;;4876103;29;20084;-88
2022/08/22 11:39:00;;;;;;;11.43;8.00;;;32.70;62.90;;;;;;4882533;29;20130;-91
2022/08/22 11:41:46;;;;;;;12.38;8.60;;;32.40;63.20;;;;;;4882470;29;20044;-87
2022/08/22 11:44:26;;;;;;;11.80;8.35;;;32.00;64.30;;;;;;4882770;29;20089;-87
2022/08/22 11:46:56;;;;;;;10.80;7.90;;;31.80;64.40;;;;;;4952805;28;20127;-85
2022/08/22 11:49:26;;;;;;;;;;;31.80;64.60;;;;;;4962779;28;20299;-81
2022/08/22 11:52:18;;;;;;;13.15;8.25;;;31.60;65.20;;;;;;4961823;28;19906;-82
2022/08/22 11:54:57;;;;;;;12.43;8.88;;;31.70;63.60;;;;;;4978892;28;20042;-82
2022/08/22 11:57:47;;;;;;;12.93;7.90;;;32.20;63.40;;;;;;4978746;28;20063;-84
2022/08/22 12:00:23;;;;;;;;;;;31.20;65.30;;;;;;4961337;28;20050;-80
2022/08/22 12:03:13;;;;;;;10.82;7.50;;;31.70;64.60;;;;;;4960937;28;19906;-86
2022/08/22 12:05:50;;;;;;;9.82;7.95;;;32.30;61.80;;;;;;4961499;28;20113;-83
2022/08/22 12:08:28;;;;;;;9.50;7.38;;;32.40;62.00;;;;;;4978504;28;20026;-92
2022/08/22 12:11:29;;;;;;;10.02;7.82;;;32.40;60.60;;;;;;4979889;28;20026;-83
2022/08/22 12:14:04;;;;;;;9.65;7.72;;;31.70;62.10;;;;;;4978816;28;20105;-77
2022/08/22 12:16:51;;;;;;;10.52;7.20;;;31.30;62.80;;;;;;4978762;28;20102;-80
2022/08/22 12:19:29;;;;;;;10.27;7.80;;;31.60;62.10;;;;;;4978966;28;20034;-85
2022/08/22 12:22:23;;;;;;;11.32;8.10;;;31.60;62.00;;;;;;4978367;28;20034;-84
2022/08/22 12:25:27;;;;;;;10.80;7.30;;;31.70;61.90;;;;;;4977246;28;20482;-83
2022/08/22 12:28:24;;;;;;;10.88;7.55;;;31.90;61.00;;;;;;4960220;28;20410;-84
2022/08/22 12:31:15;;;;;;;9.20;6.90;;;32.40;61.60;;;;;;4960820;28;20117;-83
2022/08/22 12:33:43;;;;;;;;;;;32.60;61.10;;;;;;4978156;28;20098;-83
2022/08/22 12:36:30;;;;;;;11.07;8.05;;;32.70;60.60;;;;;;4960740;28;19953;-92
2022/08/22 12:39:26;;;;;;;14.45;7.53;;;32.70;59.30;;;;;;4960785;28;20033;-84
2022/08/22 12:42:19;;;;;;;11.10;7.05;;;32.50;60.50;;;;;;4978056;28;20041;-79
2022/08/22 12:45:24;;;;;;;9.13;6.57;;;32.20;59.90;;;;;;4960721;28;20022;-82
2022/08/22 12:47:59;;;;;;;8.23;6.50;;;31.50;60.30;;;;;;4959914;28;20019;-83
2022/08/22 12:51:22;;;;;;;11.60;6.45;;;31.70;61.40;;;;;;4960906;28;20035;-82
2022/08/22 12:53:54;;;;;;;11.38;7.70;;;31.20;60.50;;;;;;4899348;29;20067;-79
2022/08/22 12:57:03;;;;;;;10.30;6.47;;;31.60;62.00;;;;;;4899727;29;20044;-88
2022/08/22 12:59:41;;;;;;;11.10;6.55;;;31.80;60.10;;;;;;4898818;29;20544;-82
2022/08/22 13:02:33;;;;;;;9.38;6.50;;;32.40;60.10;;;;;;4898917;29;20035;-88
2022/08/22 13:05:12;;;;;;;10.52;7.35;;;33.00;58.90;;;;;;4892941;29;20138;-81
2022/08/22 13:07:41;;;;;;;11.18;7.25;;;32.60;60.40;;;;;;4898965;29;20025;-84
2022/08/22 13:10:33;;;;;;;10.45;6.60;;;32.80;59.80;;;;;;4898840;29;20025;-85
2022/08/22 13:12:59;;;;;;;12.02;7.70;;;32.20;60.10;;;;;;4891520;29;20047;-84
2022/08/22 13:15:31;;;;;;;10.15;7.28;;;32.50;60.00;;;;;;4899055;29;20033;-81
2022/08/22 13:18:05;;;;;;;11.60;8.15;;;32.80;58.80;;;;;;4899151;29;20169;-86
2022/08/22 13:20:37;;;;;;;12.73;7.38;;;32.60;58.40;;;;;;4898936;29;20473;-88
2022/08/22 13:23:30;;;;;;;10.52;7.53;;;32.60;58.80;;;;;;4899425;29;20068;-82
2022/08/22 13:25:59;;;;;;;10.80;7.25;;;32.30;58.80;;;;;;4970658;28;20047;-82
2022/08/22 13:28:28;;;;;;;10.35;7.30;;;32.10;59.20;;;;;;4977511;28;20057;-82
2022/08/22 13:30:56;;;;;;;9.73;7.23;;;32.20;58.80;;;;;;4960021;28;20054;-81
2022/08/22 13:33:29;;;;;;;10.98;7.60;;;32.00;58.60;;;;;;4960062;28;20053;-79
2022/08/22 13:36:05;;;;;;;9.50;7.85;;;32.30;57.90;;;;;;4976568;28;20050;-79
2022/08/22 13:38:38;;;;;;;11.38;7.90;;;32.70;57.80;;;;;;4976687;28;20023;-81
2022/08/22 13:41:06;;;;;;;10.85;7.47;;;33.20;57.50;;;;;;4976602;28;20043;-79
2022/08/22 13:43:54;;;;;;;11.45;7.97;;;32.80;57.10;;;;;;4959409;28;20022;-80
2022/08/22 13:46:26;;;;;;;14.70;8.27;;;32.50;57.80;;;;;;4976531;28;20034;-85
2022/08/22 13:48:54;;;;;;;9.93;6.88;;;32.60;58.40;;;;;;4976975;28;20015;-87
2022/08/22 13:51:29;;;;;;;8.88;7.35;;;32.90;58.30;;;;;;4959151;28;20027;-80
2022/08/22 13:54:33;;;;;;;11.65;8.00;;;32.90;57.10;;;;;;4975197;28;20035;-79
2022/08/22 13:57:25;;;;;;;12.82;7.97;;;33.20;57.00;;;;;;4976258;28;20029;-89
2022/08/22 14:00:12;;;;;;;10.32;7.63;;;32.70;57.10;;;;;;4975810;28;20494;-83
2022/08/22 14:02:37;;;;;;;10.20;7.82;;;32.60;57.30;;;;;;4976191;28;20438;-80
2022/08/22 14:05:11;;;;;;;10.43;7.20;;;32.40;58.00;;;;;;4976631;28;20541;-83
2022/08/22 14:07:47;;;;;;;13.95;7.57;;;32.40;57.30;;;;;;4976533;28;20054;-84
2022/08/22 14:10:22;;;;;;;12.60;7.20;;;32.30;57.80;;;;;;4976702;28;20489;-80
2022/08/22 14:12:54;;;;;;;9.77;7.40;;;32.40;58.70;;;;;;4976787;28;20058;-81
2022/08/22 14:15:26;;;;;;;10.02;7.30;;;32.80;58.10;;;;;;4975926;28;20065;-83
2022/08/22 14:18:00;;;;;;;19.75;8.30;;;33.30;57.90;;;;;;4982121;28;20035;-80
2022/08/22 14:20:29;;;;;;;10.55;7.03;;;32.70;57.60;;;;;;4614061;28;9999683;-82
2022/08/22 14:23:25;;;;;;;9.13;6.93;;;32.40;58.00;;;;;;4972923;28;20031;-77
2022/08/22 14:25:50;;;;;;;10.57;6.97;;;32.10;57.90;;;;;;4972986;28;20087;-81
2022/08/22 14:28:34;;;;;;;12.48;7.93;;;32.40;57.60;;;;;;4972879;28;20109;-80
2022/08/22 14:31:09;;;;;;;8.82;6.82;;;32.50;57.50;;;;;;4972248;28;20027;-79
2022/08/22 14:34:09;;;;;;;11.68;7.25;;;32.90;57.00;;;;;;4955308;28;20363;-76
2022/08/22 14:36:56;;;;;;;10.20;7.70;;;32.90;58.80;;;;;;4967043;28;20042;-78
2022/08/22 14:39:37;;;;;;;9.73;6.82;;;33.20;58.80;;;;;;4960793;28;20570;-78
2022/08/22 14:42:24;;;;;;;8.20;6.10;;;33.20;58.80;;;;;;4975077;28;20050;-77
2022/08/22 14:45:08;;;;;;;9.75;5.68;;;32.80;60.10;;;;;;4992454;28;20058;-86